MHLM/SAP METAR and TAF weather

Enter ICAO airport designator
Station Type Date Time Source
MHLM METAR 2021/05/15 23:00 UTC NOAA

MHLM 152300Z 02012KT 9999 FEW030 30/22 Q1011 A2986 NOSIG


Station Type Date Time Source
MHLM Decoded METAR 2021/05/15 23:00 UTC NOAA

La Mesa San Pedro Sula , Honduras (MHLM) 15-27N 087-56W 31M
May 15, 2021 - 07:00 PM EDT / 2021.05.15 2300 UTC
Wind: from the NNE (020 degrees) at 14 MPH (12 KT):0
Visibility: greater than 7 mile(s):0
Sky conditions: mostly clear
Temperature: 86 F (30 C)
Heat index: 91.8 F (33.2 C):1
Dew Point: 71 F (22 C)
Relative Humidity: 62%
Pressure (altimeter): 29.86 in. Hg (1011 hPa)
ob: MHLM 152300Z 02012KT 9999 FEW030 30/22 Q1011 A2986 NOSIG
cycle: 23

Station Type Date Time Source
MHLM TAF 2021/05/15 18:58 UTC NOAA

TAF MHLM 151630Z 1518/1618 02010KT 9999 SCT030 TX33/1521Z TN23/1612Z
TEMPO 1521/1602 8000 VCSH SCT028TCU SCT090
BECMG 1602/1604 23005KT SCT028 SCT090
BECMG 1614/1616 02012KT

Example: see airport list